createdAt,value
2019-03-26T00:02:47.610Z,3.80
2019-03-26T00:07:51.337Z,3.70
2019-03-26T00:12:54.025Z,3.37
2019-03-26T00:17:56.648Z,3.50
2019-03-26T00:22:59.297Z,3.40
2019-03-26T00:28:01.912Z,3.27
2019-03-26T00:33:04.591Z,3.20
2019-03-26T00:38:07.239Z,3.37
2019-03-26T00:43:09.864Z,3.37
2019-03-26T00:48:12.482Z,3.93
2019-03-26T00:53:15.149Z,3.93
2019-03-26T00:58:19.162Z,3.57
2019-03-26T01:03:21.773Z,3.57
2019-03-26T01:08:24.397Z,3.77
2019-03-26T01:13:27.035Z,3.80
2019-03-26T01:18:29.651Z,3.83
2019-03-26T01:23:33.459Z,4.07
2019-03-26T01:28:36.150Z,4.40
2019-03-26T01:33:39.874Z,4.40
2019-03-26T01:38:43.652Z,4.60
2019-03-26T01:43:46.285Z,3.63
2019-03-26T01:48:48.950Z,4.30
2019-03-26T01:53:53.916Z,4.00
2019-03-26T01:58:57.773Z,3.90
2019-03-26T02:04:00.383Z,4.17
2019-03-26T02:09:04.182Z,4.40
2019-03-26T02:14:06.781Z,4.30
2019-03-26T02:19:09.431Z,4.00
2019-03-26T02:24:14.456Z,4.10
2019-03-26T02:29:17.086Z,3.77
2019-03-26T02:34:19.784Z,3.27
2019-03-26T02:39:22.379Z,2.87
2019-03-26T02:44:24.971Z,3.43
2019-03-26T02:49:27.658Z,4.00
2019-03-26T02:54:30.290Z,3.50
2019-03-26T02:59:32.907Z,4.40
2019-03-26T03:04:35.588Z,4.10
2019-03-26T03:09:38.197Z,3.70
2019-03-26T03:14:43.214Z,4.30
2019-03-26T03:19:45.871Z,3.90
2019-03-26T03:24:48.482Z,3.80
2019-03-26T03:29:51.254Z,3.90
2019-03-26T03:34:54.013Z,4.23
2019-03-26T03:39:56.674Z,4.13
2019-03-26T03:44:59.340Z,4.30
2019-03-26T03:50:02.030Z,4.10
2019-03-26T03:55:05.247Z,4.07
2019-03-26T04:00:29.829Z,4.63
2019-03-26T04:05:32.560Z,5.53
2019-03-26T04:10:35.239Z,5.33
2019-03-26T04:15:37.848Z,5.03
2019-03-26T04:20:41.697Z,4.67
2019-03-26T04:25:44.393Z,4.77
2019-03-26T04:30:47.036Z,4.93
2019-03-26T04:35:49.682Z,5.13
2019-03-26T04:40:52.265Z,5.43
2019-03-26T04:45:54.904Z,5.80
2019-03-26T04:50:57.548Z,5.73
2019-03-26T04:56:01.248Z,6.93
2019-03-26T05:01:03.894Z,8.03
2019-03-26T05:06:06.594Z,7.97
2019-03-26T05:11:09.216Z,11.13
2019-03-26T05:16:11.862Z,10.53
2019-03-26T05:21:14.552Z,10.90
2019-03-26T05:26:18.982Z,12.57
2019-03-26T05:31:21.605Z,11.60
2019-03-26T05:36:24.271Z,11.30
2019-03-26T05:41:26.913Z,12.07
2019-03-26T05:46:29.532Z,12.67
2019-03-26T05:51:32.159Z,11.50
2019-03-26T05:56:34.797Z,11.43
2019-03-26T06:01:37.410Z,9.80
2019-03-26T06:06:40.277Z,9.80
2019-03-26T06:11:42.940Z,10.00
2019-03-26T06:16:45.545Z,8.90
2019-03-26T06:21:48.141Z,9.77
2019-03-26T06:26:50.740Z,10.37
2019-03-26T06:31:53.389Z,10.57
2019-03-26T06:36:56.009Z,10.13
2019-03-26T06:41:58.760Z,12.47
2019-03-26T06:47:01.403Z,10.83
2019-03-26T06:52:04.232Z,11.30
2019-03-26T06:57:06.841Z,9.63
2019-03-26T07:02:10.164Z,9.67
2019-03-26T07:07:13.196Z,9.13
2019-03-26T07:12:15.809Z,10.13
2019-03-26T07:17:18.452Z,9.30
2019-03-26T07:22:21.072Z,8.33
2019-03-26T07:27:23.708Z,8.87
2019-03-26T07:32:26.484Z,6.90
2019-03-26T07:37:29.141Z,6.30
2019-03-26T07:42:31.748Z,6.17
2019-03-26T07:47:34.414Z,6.50
2019-03-26T07:52:37.068Z,4.73
2019-03-26T07:57:39.780Z,3.47
2019-03-26T08:02:46.206Z,3.00
2019-03-26T08:07:58.213Z,2.73
2019-03-26T08:12:53.319Z,2.07
2019-03-26T08:17:56.050Z,1.80
2019-03-26T08:23:00.690Z,1.97
2019-03-26T08:28:05.023Z,1.97
2019-03-26T08:33:08.006Z,2.17
2019-03-26T08:38:13.404Z,2.83
2019-03-26T08:43:16.415Z,2.57
2019-03-26T08:48:18.988Z,2.57
2019-03-26T08:53:23.369Z,2.50
2019-03-26T08:58:27.175Z,2.37
2019-03-26T09:03:29.788Z,3.10
2019-03-26T09:08:32.399Z,3.23
2019-03-26T09:13:37.411Z,2.93
2019-03-26T09:18:40.032Z,3.03
2019-03-26T09:23:43.863Z,2.60
2019-03-26T09:28:48.046Z,2.60
2019-03-26T09:33:50.831Z,1.93
2019-03-26T09:38:53.431Z,2.20
2019-03-26T09:43:56.269Z,1.90
2019-03-26T09:48:58.940Z,1.87
2019-03-26T09:54:01.545Z,2.20
2019-03-26T09:59:04.210Z,2.60
2019-03-26T10:04:08.047Z,2.20
2019-03-26T10:09:13.060Z,2.03
2019-03-26T10:14:15.761Z,2.30
2019-03-26T10:19:18.360Z,2.00
2019-03-26T10:24:21.041Z,2.43
2019-03-26T10:29:30.011Z,2.20
2019-03-26T10:34:28.461Z,2.43
2019-03-26T10:39:31.182Z,3.33
2019-03-26T10:44:33.866Z,2.37
2019-03-26T10:49:37.616Z,2.67
2019-03-26T10:54:40.281Z,2.30
2019-03-26T10:59:44.095Z,2.20
2019-03-26T11:04:46.745Z,2.33
2019-03-26T11:09:49.329Z,1.93
2019-03-26T11:14:52.047Z,2.13
2019-03-26T11:19:54.668Z,2.17
2019-03-26T11:24:57.393Z,1.80
2019-03-26T11:30:00.022Z,1.60
2019-03-26T11:35:04.084Z,2.60
2019-03-26T11:40:07.588Z,2.23
2019-03-26T11:45:10.899Z,2.23
2019-03-26T11:50:14.118Z,2.63
2019-03-26T11:55:16.784Z,1.90
2019-03-26T12:00:24.201Z,2.20
2019-03-26T12:05:27.111Z,2.10
2019-03-26T12:10:32.811Z,1.60
2019-03-26T12:15:35.449Z,2.33
2019-03-26T12:20:37.971Z,2.07
2019-03-26T12:25:40.632Z,1.80
2019-03-26T12:30:43.285Z,1.90
2019-03-26T12:35:45.947Z,1.70
2019-03-26T12:40:49.044Z,1.63
2019-03-26T12:45:51.650Z,1.50
2019-03-26T12:50:54.261Z,1.03
2019-03-26T12:55:56.842Z,1.40
2019-03-26T13:00:59.465Z,2.07
2019-03-26T13:06:02.298Z,1.63
2019-03-26T13:11:05.005Z,1.33
2019-03-26T13:16:07.662Z,1.50
2019-03-26T13:21:10.327Z,2.20
2019-03-26T13:26:13.705Z,1.10
2019-03-26T13:31:16.349Z,1.80
2019-03-26T13:36:19.028Z,2.03
2019-03-26T13:41:21.780Z,1.70
2019-03-26T13:46:24.429Z,1.50
2019-03-26T13:51:27.075Z,2.00
2019-03-26T13:56:29.888Z,1.50
2019-03-26T14:01:32.526Z,1.37
2019-03-26T14:06:35.310Z,1.67
2019-03-26T14:11:37.902Z,2.13
2019-03-26T14:16:40.624Z,1.60
2019-03-26T14:21:43.229Z,1.30
2019-03-26T14:26:45.906Z,1.43
2019-03-26T14:31:48.507Z,1.77
2019-03-26T14:36:51.154Z,1.27
2019-03-26T14:41:53.841Z,1.50
2019-03-26T14:46:56.515Z,1.70
2019-03-26T14:51:59.124Z,2.10
2019-03-26T14:57:01.801Z,1.77
2019-03-26T15:02:04.431Z,1.70
2019-03-26T15:07:07.057Z,1.87
2019-03-26T15:12:09.720Z,1.50
2019-03-26T15:17:12.370Z,2.17
2019-03-26T15:22:14.959Z,1.53
2019-03-26T15:27:17.652Z,2.00
2019-03-26T15:32:20.232Z,1.80
2019-03-26T15:37:22.876Z,1.67
2019-03-26T15:42:25.509Z,2.13
2019-03-26T15:47:28.238Z,2.00
2019-03-26T15:52:30.919Z,2.50
2019-03-26T15:57:33.624Z,1.70
2019-03-26T16:02:36.263Z,2.17
2019-03-26T16:07:38.962Z,2.60
2019-03-26T16:12:41.710Z,2.13
2019-03-26T16:17:44.459Z,2.10
2019-03-26T16:22:47.096Z,2.60
2019-03-26T16:27:50.733Z,2.43
2019-03-26T16:32:53.690Z,2.73
2019-03-26T16:37:56.821Z,2.77
2019-03-26T16:42:59.450Z,2.03
2019-03-26T16:48:02.261Z,2.13
2019-03-26T16:53:04.898Z,2.07
2019-03-26T16:58:10.321Z,2.13
2019-03-26T17:03:13.019Z,1.87
2019-03-26T17:08:15.843Z,2.23
2019-03-26T17:13:18.472Z,2.30
2019-03-26T17:18:23.995Z,2.70
2019-03-26T17:23:27.239Z,3.00
2019-03-26T17:28:29.852Z,2.50
2019-03-26T17:33:32.447Z,2.63
2019-03-26T17:38:35.110Z,3.50
2019-03-26T17:43:40.105Z,2.40
2019-03-26T17:48:44.248Z,2.17
2019-03-26T17:53:46.893Z,2.20
2019-03-26T17:58:49.838Z,1.80
2019-03-26T18:03:52.560Z,2.30
2019-03-26T18:08:59.172Z,2.40
2019-03-26T18:14:01.817Z,2.67
2019-03-26T18:19:04.589Z,3.10
2019-03-26T18:24:08.379Z,3.77
2019-03-26T18:29:11.090Z,3.10
2019-03-26T18:34:13.749Z,3.10
2019-03-26T18:39:16.562Z,2.93
2019-03-26T18:44:22.019Z,3.50
2019-03-26T18:49:24.790Z,5.87
2019-03-26T18:54:27.782Z,5.47
2019-03-26T18:59:33.077Z,4.50
2019-03-26T19:04:35.826Z,5.10
2019-03-26T19:09:40.920Z,4.60
2019-03-26T19:14:43.642Z,4.87
2019-03-26T19:19:46.339Z,4.10
2019-03-26T19:24:48.990Z,5.83
2019-03-26T19:29:58.811Z,4.70
2019-03-26T19:35:01.493Z,4.10
2019-03-26T19:40:05.724Z,4.30
2019-03-26T19:45:09.816Z,4.60
2019-03-26T19:50:13.862Z,3.60
2019-03-26T19:55:16.740Z,3.97
2019-03-26T20:00:19.765Z,3.60
2019-03-26T20:05:22.717Z,3.73
2019-03-26T20:10:25.633Z,3.70
2019-03-26T20:15:28.507Z,3.60
2019-03-26T20:20:31.264Z,3.40
2019-03-26T20:25:33.937Z,3.40
2019-03-26T20:30:37.850Z,3.10
2019-03-26T20:35:40.803Z,3.00
2019-03-26T20:40:43.935Z,2.30
2019-03-26T20:45:46.594Z,2.73
2019-03-26T20:50:49.304Z,2.60
2019-03-26T20:55:54.561Z,2.50
2019-03-26T21:00:57.589Z,2.60
2019-03-26T21:06:00.213Z,2.90
2019-03-26T21:11:04.020Z,2.47
2019-03-26T21:16:06.745Z,2.87
2019-03-26T21:21:09.404Z,3.17
2019-03-26T21:26:12.165Z,3.50
2019-03-26T21:31:14.814Z,2.80
2019-03-26T21:36:17.405Z,2.87
2019-03-26T21:41:20.076Z,3.07
2019-03-26T21:46:22.688Z,2.47
2019-03-26T21:51:25.294Z,2.60
2019-03-26T21:56:28.004Z,1.83
2019-03-26T22:01:31.570Z,4.57
2019-03-26T22:06:34.221Z,2.53
2019-03-26T22:11:49.246Z,2.57
2019-03-26T22:16:41.597Z,2.53
2019-03-26T22:21:44.276Z,3.67
2019-03-26T22:26:46.986Z,3.80
2019-03-26T22:31:49.618Z,4.00
2019-03-26T22:36:52.274Z,4.00
2019-03-26T22:41:55.111Z,3.67
2019-03-26T22:46:57.736Z,3.23
2019-03-26T22:52:00.399Z,3.50
2019-03-26T22:57:06.340Z,4.07
2019-03-26T23:02:08.820Z,3.07
2019-03-26T23:07:11.462Z,2.20
2019-03-26T23:12:14.098Z,2.17
2019-03-26T23:17:16.767Z,2.37
2019-03-26T23:22:19.363Z,1.97
2019-03-26T23:27:21.967Z,2.40
2019-03-26T23:32:24.574Z,2.07
2019-03-26T23:37:27.185Z,2.57
2019-03-26T23:42:29.911Z,3.00
2019-03-26T23:47:33.960Z,3.00
2019-03-26T23:52:36.548Z,3.90
2019-03-26T23:57:42.753Z,3.97
